Time;durP1;ratioP1;P1;durP2;ratioP2;P2;SDS_P1;SDS_P2;PMS_P1;PMS_P2;Temp;Humidity;BMP_temperature;BMP_pressure;BME280_temperature;BME280_humidity;BME280_pressure;Samples;Min_cycle;Max_cycle;Signal;HPM_P1;HPM_P2
2023/11/18 00:01:51;;;;;;;16.23;6.77;;;;;;;4.89;80.45;100013.70;124794;1105;104677;-88
2023/11/18 00:04:23;;;;;;;14.53;6.80;;;;;;;4.84;80.53;100000.48;124926;1105;104271;-89
2023/11/18 00:06:54;;;;;;;14.00;6.10;;;;;;;4.79;80.92;99998.48;124996;1105;104258;-89
2023/11/18 00:09:26;;;;;;;13.27;6.53;;;;;;;4.73;80.57;99995.56;124935;1105;102035;-88
2023/11/18 00:11:57;;;;;;;15.27;6.40;;;;;;;4.68;80.63;99987.53;124982;1105;102109;-90
2023/11/18 00:14:29;;;;;;;14.40;6.57;;;;;;;4.65;80.56;99993.45;124865;1105;102028;-88
2023/11/18 00:17:02;;;;;;;12.00;5.63;;;;;;;4.65;80.87;100000.37;124958;1104;104185;-85
2023/11/18 00:19:34;;;;;;;16.30;7.20;;;;;;;4.61;81.61;100009.73;124988;1105;101888;-88
2023/11/18 00:22:06;;;;;;;15.45;6.95;;;;;;;4.58;81.03;100003.45;124914;1105;104255;-89
2023/11/18 00:24:37;;;;;;;17.20;7.13;;;;;;;4.56;81.18;100003.37;124893;1105;102813;-86
2023/11/18 00:27:10;;;;;;;16.00;7.10;;;;;;;4.53;80.90;100000.63;124694;1105;104139;-90
2023/11/18 00:29:43;;;;;;;16.50;6.83;;;;;;;4.52;81.15;100009.25;124824;1105;102000;-88
2023/11/18 00:32:15;;;;;;;16.30;7.10;;;;;;;4.53;81.03;99999.73;124900;1105;101800;-85
2023/11/18 00:34:46;;;;;;;15.47;6.73;;;;;;;4.53;80.96;100002.34;124899;1105;104415;-87
2023/11/18 00:37:18;;;;;;;15.97;6.53;;;;;;;4.52;82.79;99997.94;124844;1105;102047;-89
2023/11/18 00:39:49;;;;;;;16.60;7.10;;;;;;;4.45;81.54;99984.63;124735;1105;104261;-85
2023/11/18 00:42:21;;;;;;;16.27;7.40;;;;;;;4.42;81.81;99986.19;124955;1105;101935;-85
2023/11/18 00:44:55;;;;;;;16.33;7.33;;;;;;;4.42;81.60;99983.59;124808;1105;104185;-86
2023/11/18 00:47:27;;;;;;;17.53;7.70;;;;;;;4.42;81.93;99978.39;124888;1105;104287;-85
2023/11/18 00:50:01;;;;;;;16.37;7.17;;;;;;;4.42;82.13;99962.81;124846;1105;102183;-84
2023/11/18 00:52:33;;;;;;;18.87;7.77;;;;;;;4.40;81.94;99961.84;124790;1105;104385;-87
2023/11/18 00:55:06;;;;;;;16.57;7.67;;;;;;;4.35;81.72;99956.41;124939;1105;104268;-88
2023/11/18 00:57:40;;;;;;;16.73;7.30;;;;;;;4.32;82.12;99962.33;124883;1105;101846;-85
2023/11/18 01:00:15;;;;;;;16.77;7.70;;;;;;;4.33;82.46;99958.02;124906;1103;102567;-84
2023/11/18 01:02:48;;;;;;;17.87;7.70;;;;;;;4.33;82.03;99955.42;124851;1105;104338;-85
2023/11/18 01:05:20;;;;;;;18.53;7.63;;;;;;;4.32;82.35;99957.13;124919;1105;102105;-86
2023/11/18 01:07:52;;;;;;;16.87;7.00;;;;;;;4.32;81.45;99953.66;124859;1105;104185;-86
2023/11/18 01:10:24;;;;;;;17.40;7.30;;;;;;;4.30;82.07;99945.78;124839;1105;102140;-87
2023/11/18 01:12:57;;;;;;;18.20;7.77;;;;;;;4.27;82.17;99935.23;124943;1105;104195;-89
2023/11/18 01:15:32;;;;;;;16.23;7.10;;;;;;;4.23;81.92;99935.00;125178;1104;104211;-85
2023/11/18 01:18:04;;;;;;;15.13;6.63;;;;;;;4.20;83.21;99938.31;125154;1106;102166;-86
2023/11/18 01:20:35;;;;;;;15.10;6.60;;;;;;;4.16;84.37;99938.98;125073;1104;101839;-88
2023/11/18 01:23:07;;;;;;;14.90;6.87;;;;;;;4.12;83.37;99943.11;125160;1105;104258;-88
2023/11/18 01:25:40;;;;;;;17.07;7.30;;;;;;;4.14;83.10;99948.37;125174;1105;102144;-89
2023/11/18 01:28:11;;;;;;;14.67;7.10;;;;;;;4.16;82.46;99953.66;125556;1103;104280;-85
2023/11/18 01:30:44;;;;;;;16.60;7.07;;;;;;;4.15;82.89;99965.75;125682;1105;102310;-83
2023/11/18 01:33:16;;;;;;;14.73;6.70;;;;;;;4.17;83.18;99971.91;125932;1105;102051;-84
2023/11/18 01:35:52;;;;;;;16.63;6.70;;;;;;;4.21;82.77;99978.19;126528;1097;101705;31
2023/11/18 01:38:26;;;;;;;15.27;6.63;;;;;;;4.22;82.78;99980.83;125816;1093;102589;-83
2023/11/18 01:40:57;;;;;;;15.40;7.23;;;;;;;4.26;83.10;99981.91;125269;1105;102000;-82
2023/11/18 01:43:31;;;;;;;15.20;6.87;;;;;;;4.28;83.01;99981.16;125272;1105;101846;-84
2023/11/18 01:46:03;;;;;;;;;;;;;;;4.30;83.22;99963.97;125515;1105;101817;-82
2023/11/18 01:48:36;;;;;;;15.43;6.67;;;;;;;4.31;82.67;99968.33;125367;1105;104211;-88
2023/11/18 01:51:12;;;;;;;15.30;6.37;;;;;;;4.31;82.98;99959.66;125347;1105;102140;-86
2023/11/18 01:53:45;;;;;;;14.77;6.17;;;;;;;4.31;82.99;99947.55;125398;1105;104076;-86
2023/11/18 01:56:17;;;;;;;14.77;6.40;;;;;;;4.32;82.84;99940.67;125491;1105;102127;-86
2023/11/18 01:58:50;;;;;;;12.87;5.93;;;;;;;4.31;83.12;99942.35;125884;1096;102755;-81
2023/11/18 02:01:21;;;;;;;12.53;6.13;;;;;;;4.32;82.58;99959.73;125552;1105;101855;-86
2023/11/18 02:04:07;;;;;;;14.13;6.30;;;;;;;4.32;83.03;99958.84;126521;1096;102808;31
2023/11/18 02:09:52;;;;;;;15.27;6.50;;;;;;;4.36;82.85;99978.95;125916;1096;102991;31
2023/11/18 02:12:34;;;;;;;13.20;6.20;;;;;;;4.36;83.09;99985.87;125128;1109;102503;-80
2023/11/18 02:15:12;;;;;;;12.83;6.03;;;;;;;4.35;83.22;99982.39;125150;1108;104373;-84
2023/11/18 02:17:46;;;;;;;12.63;5.47;;;;;;;4.36;83.36;99962.48;125501;1096;104191;-84
2023/11/18 02:20:20;;;;;;;13.20;5.90;;;;;;;4.36;83.59;99967.69;125383;1109;102087;-77
2023/11/18 02:22:53;;;;;;;14.03;5.67;;;;;;;4.35;83.50;99971.08;125340;1100;103108;-84
2023/11/18 02:25:34;;;;;;;13.47;6.10;;;;;;;4.32;83.69;99964.92;126177;1096;102419;31
2023/11/18 02:28:06;;;;;;;13.97;5.73;;;;;;;4.34;83.35;99970.20;125213;1108;101833;-83
2023/11/18 02:30:37;;;;;;;13.10;5.85;;;;;;;4.35;83.45;99974.59;125309;1108;102044;-85
2023/11/18 02:33:18;;;;;;;13.37;5.87;;;;;;;4.33;83.30;99971.00;124891;1108;102499;-83
2023/11/18 02:35:56;;;;;;;13.40;6.13;;;;;;;4.31;83.80;99973.52;125016;1108;102061;-89
2023/11/18 02:38:37;;;;;;;12.10;5.67;;;;;;;4.28;83.34;99973.36;124809;1107;102321;-86
2023/11/18 02:41:11;;;;;;;13.80;5.87;;;;;;;4.26;84.00;99968.92;125064;1108;104268;-85
2023/11/18 02:43:44;;;;;;;15.17;5.90;;;;;;;4.27;83.76;99965.48;125225;1108;117747;-85
2023/11/18 02:46:18;;;;;;;12.87;6.03;;;;;;;4.28;84.02;99965.56;125132;1109;102481;-83
2023/11/18 02:48:53;;;;;;;14.53;6.00;;;;;;;4.25;83.93;99967.12;125095;1109;104105;-87
2023/11/18 02:51:26;;;;;;;13.30;5.90;;;;;;;4.29;83.83;99975.16;125023;1108;102093;-84
2023/11/18 02:53:58;;;;;;;13.03;5.70;;;;;;;4.28;83.17;99978.55;124846;1108;102215;-88
2023/11/18 02:56:30;;;;;;;13.37;5.93;;;;;;;4.28;83.81;99985.47;124751;1108;104102;-84
2023/11/18 02:59:05;;;;;;;13.97;6.50;;;;;;;4.24;83.98;99965.33;124746;1108;104256;-88
2023/11/18 03:01:38;;;;;;;13.23;5.83;;;;;;;4.19;83.28;99971.99;124777;1108;101971;-86
2023/11/18 03:04:10;;;;;;;12.33;5.55;;;;;;;4.16;83.54;99972.75;124827;1108;110889;-86
2023/11/18 03:06:42;;;;;;;14.00;6.23;;;;;;;4.16;83.64;99972.75;124799;1108;104702;-87
2023/11/18 03:09:15;;;;;;;15.70;6.07;;;;;;;4.16;83.92;99974.42;124843;1107;102038;-85
2023/11/18 03:11:46;;;;;;;12.63;5.30;;;;;;;4.17;84.18;99987.49;124668;1109;104185;-82
2023/11/18 03:14:19;;;;;;;12.13;5.57;;;;;;;4.17;84.07;99981.42;124741;1108;102303;-87
2023/11/18 03:16:50;;;;;;;12.73;6.37;;;;;;;4.14;84.22;99982.14;125549;1108;104158;-81
2023/11/18 03:19:22;;;;;;;13.23;6.07;;;;;;;4.16;84.07;99990.92;125293;1109;102521;-79
2023/11/18 03:21:55;;;;;;;15.53;6.17;;;;;;;4.18;83.95;99993.60;125055;1109;101945;-84
2023/11/18 03:24:28;;;;;;;12.47;5.70;;;;;;;4.16;83.71;99996.12;125504;1105;107601;-86
2023/11/18 03:27:00;;;;;;;13.03;5.70;;;;;;;4.16;84.08;99995.20;125331;1106;102291;-83
2023/11/18 03:29:32;;;;;;;13.10;5.80;;;;;;;4.17;83.86;99997.88;125569;1108;101804;-81
2023/11/18 03:32:05;;;;;;;13.90;6.13;;;;;;;4.15;84.32;99989.12;125559;1109;102243;-79
2023/11/18 03:34:37;;;;;;;13.10;6.00;;;;;;;4.18;84.48;99994.48;125289;1108;104105;-82
2023/11/18 03:37:09;;;;;;;12.67;5.47;;;;;;;4.20;84.20;99997.16;125187;1108;101826;-84
2023/11/18 03:39:40;;;;;;;15.20;6.43;;;;;;;4.21;84.35;100005.03;125313;1108;102295;-85
2023/11/18 03:42:12;;;;;;;13.57;5.77;;;;;;;4.21;84.37;100007.63;125557;1099;102978;-82
2023/11/18 03:44:43;;;;;;;11.90;5.70;;;;;;;4.21;83.69;100009.34;125626;1109;101696;-80
2023/11/18 03:47:15;;;;;;;13.63;6.30;;;;;;;4.21;84.30;100012.83;125510;1108;102196;-81
2023/11/18 03:49:47;;;;;;;13.87;6.00;;;;;;;4.21;84.50;100006.75;126202;1096;102616;-81
2023/11/18 03:52:18;;;;;;;13.37;5.80;;;;;;;4.21;84.34;100017.14;125785;1108;104086;-79
2023/11/18 03:54:50;;;;;;;13.00;5.90;;;;;;;4.20;83.94;100013.63;125769;1096;101807;-83
2023/11/18 03:57:21;;;;;;;13.07;6.00;;;;;;;4.21;83.78;100023.22;125891;1096;103789;-79
2023/11/18 04:02:42;;;;;;;13.73;6.07;;;;;;;4.20;84.43;100024.02;126019;1096;102070;-81
2023/11/18 04:05:14;;;;;;;13.13;6.03;;;;;;;4.22;84.10;100027.58;125382;1105;102422;-82
2023/11/18 04:07:46;;;;;;;14.10;6.00;;;;;;;4.21;84.78;100020.62;125122;1108;101785;-84
2023/11/18 04:10:20;;;;;;;13.75;6.55;;;;;;;4.18;84.08;100015.26;125581;1109;101751;-82
2023/11/18 04:12:52;;;;;;;14.65;6.62;;;;;;;4.15;84.73;100025.48;124876;1109;102821;-85
2023/11/18 04:15:24;;;;;;;16.60;7.53;;;;;;;4.08;84.58;100018.16;124602;1109;102065;-87
2023/11/18 04:17:56;;;;;;;13.57;6.57;;;;;;;4.02;84.68;100010.05;124466;1109;102666;-84
2023/11/18 04:20:27;;;;;;;14.63;7.00;;;;;;;3.97;84.32;100007.20;124716;1108;102035;-84
2023/11/18 04:22:59;;;;;;;17.23;6.97;;;;;;;3.96;84.31;100018.41;124693;1107;104201;-85
2023/11/18 04:25:31;;;;;;;18.00;7.83;;;;;;;3.94;84.72;100017.41;124758;1108;102057;-85
2023/11/18 04:28:04;;;;;;;17.40;7.43;;;;;;;3.92;84.19;100027.71;124653;1107;102087;-85
2023/11/18 04:30:35;;;;;;;18.33;8.07;;;;;;;3.88;84.61;100020.59;124569;1109;104182;-85
2023/11/18 04:33:08;;;;;;;18.53;8.03;;;;;;;3.87;85.19;100017.91;124529;1109;102035;-83
2023/11/18 04:35:40;;;;;;;18.60;8.53;;;;;;;3.86;84.68;100016.99;124968;1109;104306;-84
2023/11/18 04:38:11;;;;;;;17.37;7.93;;;;;;;3.86;84.53;100006.61;124898;1109;104194;-84
2023/11/18 04:40:44;;;;;;;19.30;8.70;;;;;;;3.88;84.40;100019.67;124683;1108;102183;-86
2023/11/18 04:43:16;;;;;;;18.63;8.03;;;;;;;3.85;84.85;100019.50;124725;1108;101820;-87
2023/11/18 04:45:47;;;;;;;17.27;8.13;;;;;;;3.81;85.66;100023.64;124704;1108;102220;-89
2023/11/18 04:48:21;;;;;;;18.20;8.00;;;;;;;3.76;84.92;100025.98;124885;1108;102000;-87
2023/11/18 04:50:52;;;;;;;18.00;7.65;;;;;;;3.73;85.04;100025.81;124777;1106;104256;-84
2023/11/18 04:53:25;;;;;;;17.33;7.90;;;;;;;3.76;84.67;100031.17;124653;1108;101858;-83
2023/11/18 04:55:56;;;;;;;19.20;8.23;;;;;;;3.75;85.12;100031.09;124773;1109;104270;-88
2023/11/18 04:58:28;;;;;;;20.47;8.50;;;;;;;3.75;84.96;100025.91;124687;1109;102106;-88
2023/11/18 05:00:59;;;;;;;19.03;8.17;;;;;;;3.70;84.95;100027.36;124752;1107;101804;-83
2023/11/18 05:03:31;;;;;;;19.23;8.93;;;;;;;3.69;85.03;100026.44;124749;1109;101984;-86
2023/11/18 05:06:04;;;;;;;16.43;7.60;;;;;;;3.69;84.95;100031.62;124638;1109;104342;-87
2023/11/18 05:08:36;;;;;;;19.20;8.37;;;;;;;3.67;85.29;100029.78;124671;1108;104297;-86
2023/11/18 05:11:08;;;;;;;18.63;8.10;;;;;;;3.65;84.61;100041.79;124805;1107;104121;-87
2023/11/18 05:13:41;;;;;;;18.83;8.90;;;;;;;3.65;85.10;100041.79;124878;1106;104683;-86
2023/11/18 05:16:14;;;;;;;17.03;8.10;;;;;;;3.63;85.51;100030.41;124732;1108;101982;-86
2023/11/18 05:18:45;;;;;;;16.73;8.33;;;;;;;3.65;85.44;100034.89;124864;1108;104329;-86
2023/11/18 05:21:17;;;;;;;16.70;8.10;;;;;;;3.63;85.03;100043.38;124677;1106;102055;-89
2023/11/18 05:23:48;;;;;;;18.47;8.50;;;;;;;3.60;85.46;100037.22;124648;1109;104243;-87
2023/11/18 05:26:20;;;;;;;18.00;8.27;;;;;;;3.58;85.38;100044.04;124643;1109;101947;-87
2023/11/18 05:28:52;;;;;;;18.00;8.67;;;;;;;3.58;85.08;100048.31;124684;1109;102004;-86
2023/11/18 05:31:23;;;;;;;19.20;8.47;;;;;;;3.57;85.52;100059.52;124575;1108;104192;-87
2023/11/18 05:33:55;;;;;;;18.50;8.93;;;;;;;3.52;85.77;100056.66;124534;1108;104267;-85
2023/11/18 05:36:30;;;;;;;18.60;8.33;;;;;;;3.49;85.45;100048.70;124541;1108;104181;-88
2023/11/18 05:39:01;;;;;;;19.20;8.80;;;;;;;3.42;86.56;100060.41;124488;1108;104188;-86
2023/11/18 05:41:35;;;;;;;19.07;8.53;;;;;;;3.40;85.89;100066.34;124511;1109;104325;-85
2023/11/18 05:44:08;;;;;;;20.73;9.03;;;;;;;3.36;86.37;100070.43;124450;1108;102546;-87
2023/11/18 05:46:40;;;;;;;17.48;7.80;;;;;;;3.35;87.51;100083.31;124578;1109;101846;-84
2023/11/18 05:49:13;;;;;;;19.83;9.40;;;;;;;3.31;86.98;100076.18;124727;1108;104303;-87
2023/11/18 05:51:45;;;;;;;20.17;9.53;;;;;;;3.31;86.48;100076.18;124856;1109;101992;-85
2023/11/18 05:54:16;;;;;;;20.13;9.33;;;;;;;3.32;86.38;100077.95;124747;1109;102353;-88
2023/11/18 05:56:48;;;;;;;22.43;10.80;;;;;;;3.31;86.76;100076.18;124651;1109;101856;-91
2023/11/18 05:59:19;;;;;;;21.97;10.53;;;;;;;3.30;87.62;100087.34;124812;1108;102378;-82
2023/11/18 06:01:51;;;;;;;21.10;8.70;;;;;;;3.30;87.33;100087.34;124466;1109;102309;-87
2023/11/18 06:04:23;;;;;;;21.97;9.77;;;;;;;3.28;87.21;100089.85;124626;1109;104207;-85
2023/11/18 06:06:54;;;;;;;22.40;10.73;;;;;;;3.25;87.37;100092.27;124542;1109;102427;-82
2023/11/18 06:09:28;;;;;;;20.50;9.45;;;;;;;3.22;87.94;100092.97;124481;1109;104198;-83
2023/11/18 06:12:00;;;;;;;21.65;11.03;;;;;;;3.19;87.01;100099.69;124546;1109;102361;-84
2023/11/18 06:14:32;;;;;;;21.27;10.37;;;;;;;3.20;86.72;100107.55;124677;1108;101955;-81
2023/11/18 06:17:04;;;;;;;21.73;10.63;;;;;;;3.26;87.03;100111.30;124589;1108;104134;-89
2023/11/18 06:19:35;;;;;;;21.97;10.70;;;;;;;3.25;87.18;100115.61;124944;1108;104198;-85
2023/11/18 06:22:07;;;;;;;25.70;11.70;;;;;;;3.25;87.30;100105.23;124607;1109;102382;-88
2023/11/18 06:24:39;;;;;;;22.37;10.97;;;;;;;3.25;87.82;100102.64;124501;1108;104743;-89
2023/11/18 06:27:11;;;;;;;23.13;10.80;;;;;;;3.26;87.10;100098.34;124696;1109;104258;-85
2023/11/18 06:29:44;;;;;;;21.70;9.30;;;;;;;3.28;87.88;100097.63;124762;1108;101967;-82
2023/11/18 06:32:25;;;;;;;22.87;10.40;;;;;;;3.26;87.42;100093.15;124923;1108;102522;-82
2023/11/18 06:34:57;;;;;;;20.70;9.37;;;;;;;3.22;87.59;100087.78;124726;1109;102173;-84
2023/11/18 06:37:35;;;;;;;21.27;10.50;;;;;;;3.19;87.96;100090.20;124596;1109;104214;-84
2023/11/18 06:40:16;;;;;;;22.87;10.70;;;;;;;3.19;87.85;100092.79;124374;1109;104214;-84
2023/11/18 06:42:48;;;;;;;22.03;10.43;;;;;;;3.21;87.74;100092.88;124478;1109;104198;-83
2023/11/18 06:45:21;;;;;;;24.90;11.83;;;;;;;3.22;87.99;100092.97;124411;1108;104348;-81
2023/11/18 06:47:53;;;;;;;21.90;10.30;;;;;;;3.27;88.02;100102.73;124703;1109;102343;-85
2023/11/18 06:50:26;;;;;;;19.53;8.87;;;;;;;3.31;88.59;100104.70;124589;1109;101861;-85
2023/11/18 06:52:58;;;;;;;24.57;11.00;;;;;;;3.31;88.61;100091.74;124639;1106;102055;-83
2023/11/18 06:55:30;;;;;;;25.73;10.83;;;;;;;3.34;87.39;100097.98;124417;1108;101931;-84
2023/11/18 06:58:02;;;;;;;21.80;9.97;;;;;;;3.33;89.22;100098.78;124692;1108;102166;-83
2023/11/18 07:00:33;;;;;;;23.57;11.30;;;;;;;3.33;88.29;100100.49;124434;1108;102166;-83
2023/11/18 07:03:05;;;;;;;26.23;11.67;;;;;;;3.33;88.28;100103.97;124316;1108;101899;-82
2023/11/18 07:05:37;;;;;;;24.77;11.70;;;;;;;3.37;88.45;100111.14;124400;1106;104207;-80
2023/11/18 07:08:08;;;;;;;25.83;11.73;;;;;;;3.41;88.47;100112.20;124420;1108;102479;-81
2023/11/18 07:10:41;;;;;;;23.20;10.87;;;;;;;3.45;88.96;100113.30;124301;1109;104267;-84
2023/11/18 07:13:12;;;;;;;22.27;10.90;;;;;;;3.43;88.56;100110.61;124379;1108;104230;-83
2023/11/18 07:15:44;;;;;;;26.17;11.47;;;;;;;3.48;88.08;100111.76;124352;1107;104204;-79
2023/11/18 07:18:16;;;;;;;23.80;11.47;;;;;;;3.48;88.43;100101.38;124454;1106;104243;-83
2023/11/18 07:20:47;;;;;;;24.93;10.87;;;;;;;3.48;89.46;100103.98;124441;1109;104265;-82
2023/11/18 07:23:19;;;;;;;25.53;11.97;;;;;;;3.46;88.55;100105.59;124370;1109;104253;-81
2023/11/18 07:25:50;;;;;;;23.07;10.77;;;;;;;3.49;88.11;100094.48;124460;1109;104240;-84
2023/11/18 07:28:22;;;;;;;24.63;11.10;;;;;;;3.47;88.37;100088.33;124420;1109;102017;-80
2023/11/18 07:30:54;;;;;;;24.20;11.47;;;;;;;3.49;89.40;100112.64;124394;1108;104198;-81
2023/11/18 07:33:26;;;;;;;23.80;10.80;;;;;;;3.47;89.56;100099.58;124371;1108;104194;-82
2023/11/18 07:35:58;;;;;;;26.17;10.73;;;;;;;3.47;89.23;100109.08;124441;1107;104181;-81
2023/11/18 07:38:30;;;;;;;26.83;10.47;;;;;;;3.47;90.19;100102.18;124410;1108;104226;-80
2023/11/18 07:41:02;;;;;;;23.27;10.43;;;;;;;3.44;89.26;100102.00;124390;1108;104223;-82
2023/11/18 07:43:36;;;;;;;21.87;9.07;;;;;;;3.44;90.32;100124.46;124400;1106;104195;-84
2023/11/18 07:46:08;;;;;;;21.10;9.70;;;;;;;3.41;88.91;100120.90;124427;1108;102243;-84
2023/11/18 07:48:40;;;;;;;22.87;9.40;;;;;;;3.39;90.40;100119.89;124330;1108;104297;-80
2023/11/18 07:51:14;;;;;;;21.33;9.70;;;;;;;3.33;90.63;100127.31;124372;1108;102119;-79
2023/11/18 07:53:45;;;;;;;23.87;9.93;;;;;;;3.31;90.55;100128.05;124466;1108;104198;-80
2023/11/18 07:56:17;;;;;;;24.83;9.53;;;;;;;3.26;90.44;100127.78;124357;1109;102026;-81
2023/11/18 07:58:49;;;;;;;23.60;10.23;;;;;;;3.23;90.72;100131.08;124432;1107;104220;-85
2023/11/18 08:01:21;;;;;;;22.33;9.13;;;;;;;3.24;91.08;100129.36;124453;1108;102135;-80
2023/11/18 08:03:52;;;;;;;23.63;10.03;;;;;;;3.21;90.98;100127.50;124443;1106;104207;-85
2023/11/18 08:06:26;;;;;;;26.23;9.10;;;;;;;3.21;91.59;100134.37;124430;1109;104182;-82
2023/11/18 08:08:57;;;;;;;20.47;8.27;;;;;;;3.22;91.58;100133.58;124358;1109;102090;-84
2023/11/18 08:11:29;;;;;;;22.33;10.67;;;;;;;3.22;90.17;100126.68;124416;1109;104246;-85
2023/11/18 08:14:02;;;;;;;22.83;10.13;;;;;;;3.28;91.60;100133.05;124428;1108;102240;-84
2023/11/18 08:16:34;;;;;;;26.48;10.55;;;;;;;3.29;90.47;100130.55;124343;1109;104261;-83
2023/11/18 08:19:07;;;;;;;25.03;10.63;;;;;;;3.29;90.74;100135.73;124409;1108;103298;-82
2023/11/18 08:21:39;;;;;;;22.77;9.68;;;;;;;3.27;91.68;100133.84;124418;1108;104194;-83
2023/11/18 08:24:12;;;;;;;23.80;10.03;;;;;;;3.28;91.16;100133.05;124482;1108;101885;-87
2023/11/18 08:26:44;;;;;;;23.07;9.90;;;;;;;3.31;91.93;100134.12;124415;1108;102732;-85
2023/11/18 08:29:16;;;;;;;22.67;9.77;;;;;;;3.31;91.93;100136.72;124418;1108;102103;-86
2023/11/18 08:31:47;;;;;;;24.83;10.80;;;;;;;3.32;92.32;100133.33;124424;1109;102143;-80
2023/11/18 08:34:19;;;;;;;26.73;11.13;;;;;;;3.32;92.54;100135.00;124371;1108;104291;-82
2023/11/18 08:36:51;;;;;;;27.10;10.57;;;;;;;3.28;91.90;100139.13;124366;1109;104272;-83
2023/11/18 08:39:25;;;;;;;25.33;11.33;;;;;;;3.29;91.83;100134.82;124329;1108;101984;-82
2023/11/18 08:41:57;;;;;;;22.25;9.65;;;;;;;3.31;91.99;100141.02;124304;1109;104332;-83
2023/11/18 08:44:28;;;;;;;27.33;10.70;;;;;;;3.31;91.61;100148.80;124407;1106;104261;-83
2023/11/18 08:47:01;;;;;;;25.27;11.23;;;;;;;3.30;91.16;100137.50;124388;1108;102105;-82
2023/11/18 08:49:33;;;;;;;28.33;10.77;;;;;;;3.29;92.35;100145.20;124478;1108;102230;-81
2023/11/18 08:52:09;;;;;;;26.40;11.97;;;;;;;3.26;91.66;100130.38;124436;1108;102134;-83
2023/11/18 08:55:17;;;;;;;29.60;12.00;;;;;;;3.24;92.24;100138.06;124422;1108;101906;-85
2023/11/18 08:57:48;;;;;;;28.60;11.57;;;;;;;3.26;91.78;100126.86;124584;1108;104204;-84
2023/11/18 09:03:06;;;;;;;27.23;11.83;;;;;;;3.22;92.60;100129.27;124737;1108;104287;-82
2023/11/18 09:05:38;;;;;;;29.53;12.93;;;;;;;3.21;91.94;100119.73;124562;1107;102412;-79
2023/11/18 09:08:12;;;;;;;29.83;12.47;;;;;;;3.23;92.52;100115.52;124544;1108;102130;-80
2023/11/18 09:10:43;;;;;;;;;;;;;;;3.21;93.60;100124.91;124780;1108;102070;-80
2023/11/18 09:13:14;;;;;;;30.17;13.10;;;;;;;3.24;93.04;100121.58;124414;1108;102230;-81
2023/11/18 09:15:46;;;;;;;28.37;13.93;;;;;;;3.27;91.96;100123.47;124482;1109;104201;-82
2023/11/18 09:18:21;;;;;;;32.67;14.30;;;;;;;3.29;92.17;100117.58;124524;1107;104194;-82
2023/11/18 09:20:54;;;;;;;32.63;14.17;;;;;;;3.33;92.17;100118.65;124529;1108;103322;-83
2023/11/18 09:23:27;;;;;;;28.50;12.40;;;;;;;3.36;92.25;100121.42;124436;1109;104280;-84
2023/11/18 09:25:59;;;;;;;33.27;13.93;;;;;;;3.40;91.90;100118.21;124500;1108;104198;-83
2023/11/18 09:28:30;;;;;;;31.40;13.50;;;;;;;3.41;92.27;100104.42;124446;1107;104185;-82
2023/11/18 09:31:02;;;;;;;31.80;13.03;;;;;;;3.43;92.77;100102.83;124445;1108;104351;-83
2023/11/18 09:33:35;;;;;;;30.53;12.63;;;;;;;3.46;92.65;100091.71;124441;1109;104192;-83
2023/11/18 09:36:12;;;;;;;30.43;13.73;;;;;;;3.46;93.24;100091.71;124488;1109;104227;-85
2023/11/18 09:38:46;;;;;;;30.30;13.45;;;;;;;3.46;92.70;100090.03;124468;1108;102112;-81
2023/11/18 09:41:18;;;;;;;30.63;13.33;;;;;;;3.49;92.35;100086.70;124383;1108;101932;-82
2023/11/18 09:43:54;;;;;;;29.77;14.53;;;;;;;3.52;92.46;100085.20;124428;1108;101952;-86
2023/11/18 09:46:32;;;;;;;31.10;13.93;;;;;;;3.55;91.59;100072.41;124457;1108;104288;-84
2023/11/18 09:49:18;;;;;;;27.07;12.50;;;;;;;3.56;92.37;100084.55;124369;1108;104236;-79
2023/11/18 09:51:49;;;;;;;26.90;11.93;;;;;;;3.57;92.53;100081.16;124373;1109;104268;-79
2023/11/18 09:54:31;;;;;;;29.57;13.73;;;;;;;3.58;92.27;100069.98;124414;1108;104239;-80
2023/11/18 09:57:09;;;;;;;29.10;13.10;;;;;;;3.62;92.78;100076.23;124345;1109;103106;-82
2023/11/18 09:59:54;;;;;;;29.17;14.27;;;;;;;3.64;92.54;100065.94;124355;1109;102172;-79
2023/11/18 10:02:27;;;;;;;32.23;14.50;;;;;;;3.68;92.26;100065.31;124408;1108;101996;-81
2023/11/18 10:05:00;;;;;;;30.90;15.23;;;;;;;3.70;91.54;100068.88;124322;1109;104195;-85
2023/11/18 10:07:32;;;;;;;34.27;16.27;;;;;;;3.73;92.27;100056.08;124463;1109;102032;-83
2023/11/18 10:10:05;;;;;;;33.80;14.27;;;;;;;3.75;92.06;100062.23;124509;1108;102012;-80
2023/11/18 10:12:37;;;;;;;31.97;14.40;;;;;;;3.76;92.14;100058.84;124453;1109;103067;-83
2023/11/18 10:15:12;;;;;;;35.80;15.67;;;;;;;3.78;92.36;100054.62;124509;1109;104217;-82
2023/11/18 10:17:55;;;;;;;34.13;15.57;;;;;;;3.78;91.81;100046.83;124502;1108;104223;-80
2023/11/18 10:20:46;;;;;;;30.83;14.87;;;;;;;3.80;92.28;100055.59;124493;1108;104309;-79
2023/11/18 10:23:20;;;;;;;28.63;13.50;;;;;;;3.79;91.62;100046.03;124496;1109;117938;-81
2023/11/18 10:25:53;;;;;;;31.33;14.07;;;;;;;3.81;92.62;100049.59;124397;1107;101938;-80
2023/11/18 10:28:29;;;;;;;28.73;13.53;;;;;;;3.80;92.17;100047.80;124463;1109;101852;-84
2023/11/18 10:31:04;;;;;;;29.47;13.47;;;;;;;3.82;91.88;100053.99;124651;1106;104217;-79
2023/11/18 10:33:38;;;;;;;27.70;14.07;;;;;;;3.83;91.84;100057.47;124681;1108;101887;-88
2023/11/18 10:36:22;;;;;;;28.92;14.30;;;;;;;3.80;91.96;100054.70;124592;1109;102220;-81
2023/11/18 10:38:55;;;;;;;28.30;13.87;;;;;;;3.78;91.79;100045.13;124327;1108;101916;-82
2023/11/18 10:41:30;;;;;;;25.57;11.93;;;;;;;3.78;92.64;100067.59;124364;1109;102463;-84
2023/11/18 10:44:16;;;;;;;27.93;12.50;;;;;;;3.75;92.14;100055.33;124413;1109;101820;-82
2023/11/18 10:46:58;;;;;;;29.13;13.83;;;;;;;3.72;92.69;100054.28;124399;1109;102109;-82
2023/11/18 10:49:36;;;;;;;28.97;13.93;;;;;;;3.75;91.99;100070.91;124461;1109;104281;-83
2023/11/18 10:52:09;;;;;;;28.10;12.17;;;;;;;3.73;93.67;100088.09;124365;1109;104278;-85
2023/11/18 10:54:55;;;;;;;30.10;14.03;;;;;;;3.71;92.41;100081.02;124471;1108;104185;-80
2023/11/18 10:57:28;;;;;;;29.13;14.47;;;;;;;3.69;92.89;100080.94;124520;1109;104264;-82
2023/11/18 11:00:12;;;;;;;29.77;14.63;;;;;;;3.71;92.19;100088.80;124460;1109;102040;-81
2023/11/18 11:02:44;;;;;;;30.95;14.20;;;;;;;3.69;93.15;100093.91;124407;1109;101951;-81
2023/11/18 11:05:32;;;;;;;32.77;15.23;;;;;;;3.67;92.30;100087.75;124379;1106;103179;-80
2023/11/18 11:08:06;;;;;;;31.37;15.07;;;;;;;3.67;92.76;100089.47;124582;1108;102249;-79
2023/11/18 11:10:41;;;;;;;33.10;16.42;;;;;;;3.69;92.82;100095.63;124966;1109;104325;-82
2023/11/18 11:13:15;;;;;;;29.20;15.57;;;;;;;3.69;92.68;100088.72;124363;1108;102472;-82
2023/11/18 11:15:52;;;;;;;;;;;;;;;3.66;92.85;100092.86;124330;1108;102237;-81
2023/11/18 11:18:29;;;;;;;30.43;14.90;;;;;;;3.63;93.08;100105.66;124187;1108;104079;-81
2023/11/18 11:21:10;;;;;;;33.53;15.50;;;;;;;3.56;93.02;100105.30;124869;1109;101890;-84
2023/11/18 11:23:53;;;;;;;34.20;16.50;;;;;;;3.51;92.45;100109.34;124404;1107;104226;-86
2023/11/18 11:26:42;;;;;;;34.13;16.77;;;;;;;3.50;93.01;100110.14;124288;1108;104271;-82
2023/11/18 11:29:26;;;;;;;31.20;14.50;;;;;;;3.46;93.95;100118.57;124415;1109;101955;-81
2023/11/18 11:32:13;;;;;;;29.95;15.53;;;;;;;3.41;93.06;100117.39;124392;1109;104217;-84
2023/11/18 11:34:53;;;;;;;34.40;16.43;;;;;;;3.40;92.97;100115.63;124444;1108;104187;-83
2023/11/18 11:37:27;;;;;;;29.57;13.43;;;;;;;3.37;93.83;100110.25;124356;1109;101890;-86
2023/11/18 11:39:59;;;;;;;30.48;13.93;;;;;;;3.32;94.09;100111.66;124423;1109;101820;-83
2023/11/18 11:42:32;;;;;;;30.17;14.93;;;;;;;3.24;92.95;100116.40;124620;1106;102155;-82
2023/11/18 11:45:12;;;;;;;28.30;14.15;;;;;;;3.19;94.59;100116.13;124505;1107;107552;-85
2023/11/18 11:47:46;;;;;;;30.13;14.83;;;;;;;3.14;93.78;100116.68;124351;1108;104342;-84